createdAt,value
2017-06-13T00:00:10.566Z,936.54
2017-06-13T00:00:39.185Z,936.58
2017-06-13T00:01:07.670Z,936.59
2017-06-13T00:01:36.293Z,936.58
2017-06-13T00:02:04.815Z,936.58
2017-06-13T00:02:33.399Z,936.6
2017-06-13T00:03:02.036Z,936.55
2017-06-13T00:03:30.583Z,936.6
2017-06-13T00:03:59.112Z,936.58
2017-06-13T00:04:27.773Z,936.59
2017-06-13T00:04:56.374Z,936.56
2017-06-13T00:05:25.011Z,936.6
2017-06-13T00:05:53.720Z,936.57
2017-06-13T00:06:22.291Z,936.61
2017-06-13T00:06:50.803Z,936.57
2017-06-13T00:07:19.412Z,936.61
2017-06-13T00:07:48.055Z,936.56
2017-06-13T00:08:16.673Z,936.56
2017-06-13T00:08:45.272Z,936.6
2017-06-13T00:09:13.857Z,936.58
2017-06-13T00:09:42.394Z,936.56
2017-06-13T00:10:11.017Z,936.59
2017-06-13T00:10:39.625Z,936.6
2017-06-13T00:11:08.070Z,936.58
2017-06-13T00:11:36.660Z,936.62
2017-06-13T00:12:05.346Z,936.6
2017-06-13T00:12:33.973Z,936.59
2017-06-13T00:13:02.626Z,936.6
2017-06-13T00:13:31.326Z,936.58
2017-06-13T00:13:59.845Z,936.61
2017-06-13T00:14:28.486Z,936.6
2017-06-13T00:14:57.101Z,936.57
2017-06-13T00:15:25.647Z,936.61
2017-06-13T00:15:54.176Z,936.61
2017-06-13T00:16:23.791Z,936.6
2017-06-13T00:16:53.095Z,936.61
2017-06-13T00:17:21.631Z,936.64
2017-06-13T00:17:50.151Z,936.61
2017-06-13T00:18:18.768Z,936.62
2017-06-13T00:18:47.297Z,936.62
2017-06-13T00:19:15.915Z,936.62
2017-06-13T00:19:44.341Z,936.61
2017-06-13T00:20:12.898Z,936.64
2017-06-13T00:20:41.519Z,936.65
2017-06-13T00:21:10.135Z,936.61
2017-06-13T00:21:38.807Z,936.68
2017-06-13T00:22:08.168Z,936.69
2017-06-13T00:22:36.776Z,936.67
2017-06-13T00:23:05.388Z,936.66
2017-06-13T00:23:33.890Z,936.68
2017-06-13T00:24:02.425Z,936.68
2017-06-13T00:24:31.010Z,936.65
2017-06-13T00:24:59.633Z,936.64
2017-06-13T00:25:28.236Z,936.67
2017-06-13T00:25:56.875Z,936.66
2017-06-13T00:26:25.323Z,936.68
2017-06-13T00:26:53.927Z,936.67
2017-06-13T00:27:22.545Z,936.68
2017-06-13T00:27:51.194Z,936.66
2017-06-13T00:28:19.804Z,936.64
2017-06-13T00:28:48.417Z,936.68
2017-06-13T00:29:17.931Z,936.66
2017-06-13T00:29:46.468Z,936.64
2017-06-13T00:30:15.124Z,936.67
2017-06-13T00:30:43.567Z,936.67
2017-06-13T00:31:12.195Z,936.68
2017-06-13T00:31:40.836Z,936.69
2017-06-13T00:32:09.339Z,936.68
2017-06-13T00:32:37.868Z,936.68
2017-06-13T00:33:06.495Z,936.69
2017-06-13T00:33:35.002Z,936.69
2017-06-13T00:34:03.569Z,936.7
2017-06-13T00:34:32.098Z,936.69
2017-06-13T00:35:00.724Z,936.69
2017-06-13T00:35:29.334Z,936.71
2017-06-13T00:35:58.031Z,936.73
2017-06-13T00:36:26.455Z,936.7
2017-06-13T00:36:55.087Z,936.68
2017-06-13T00:37:23.600Z,936.69
2017-06-13T00:37:52.244Z,936.71
2017-06-13T00:38:20.846Z,936.7
2017-06-13T00:38:49.482Z,936.7
2017-06-13T00:39:18.022Z,936.71
2017-06-13T00:39:46.555Z,936.72
2017-06-13T00:40:15.101Z,936.72
2017-06-13T00:40:43.734Z,936.71
2017-06-13T00:41:12.376Z,936.71
2017-06-13T00:41:41.003Z,936.74
2017-06-13T00:42:09.529Z,936.73
2017-06-13T00:42:38.148Z,936.7
2017-06-13T00:43:06.748Z,936.74
2017-06-13T00:43:35.308Z,936.71
2017-06-13T00:44:03.925Z,936.69
2017-06-13T00:44:32.574Z,936.72
2017-06-13T00:45:01.182Z,936.7
2017-06-13T00:45:29.823Z,936.72
2017-06-13T00:45:58.346Z,936.76
2017-06-13T00:46:26.951Z,936.75
2017-06-13T00:46:55.454Z,936.72
2017-06-13T00:47:24.058Z,936.7
2017-06-13T00:47:52.623Z,936.72
2017-06-13T00:48:21.130Z,936.72
2017-06-13T00:48:50.129Z,936.75
2017-06-13T00:49:18.668Z,936.73
2017-06-13T00:49:47.261Z,936.74
2017-06-13T00:50:15.874Z,936.75
2017-06-13T00:50:44.409Z,936.75
2017-06-13T00:51:13.056Z,936.75
2017-06-13T00:51:41.662Z,936.78
2017-06-13T00:52:10.198Z,936.74
2017-06-13T00:52:38.701Z,936.73
2017-06-13T00:53:07.358Z,936.73
2017-06-13T00:53:35.959Z,936.76
2017-06-13T00:54:04.580Z,936.76
2017-06-13T00:54:33.220Z,936.75
2017-06-13T00:55:01.756Z,936.7
2017-06-13T00:55:30.291Z,936.7
2017-06-13T00:55:58.904Z,936.75
2017-06-13T00:56:27.413Z,936.75
2017-06-13T00:57:38.961Z,936.72
2017-06-13T00:58:07.460Z,936.72
2017-06-13T00:58:36.062Z,936.74
2017-06-13T00:59:04.694Z,936.73
2017-06-13T00:59:33.323Z,936.75
2017-06-13T01:00:01.909Z,936.71
2017-06-13T01:00:30.353Z,936.73
2017-06-13T01:00:58.973Z,936.71
2017-06-13T01:01:27.559Z,936.71
2017-06-13T01:01:56.188Z,936.69
2017-06-13T01:02:24.829Z,936.72
2017-06-13T01:02:53.394Z,936.7
2017-06-13T01:03:21.966Z,936.67
2017-06-13T01:03:50.642Z,936.66
2017-06-13T01:04:19.175Z,936.63
2017-06-13T01:04:47.816Z,936.64
2017-06-13T01:05:16.433Z,936.6
2017-06-13T01:05:44.934Z,936.6
2017-06-13T01:06:13.534Z,936.59
2017-06-13T01:06:42.054Z,936.56
2017-06-13T01:07:10.663Z,936.55
2017-06-13T01:07:39.286Z,936.57
2017-06-13T01:08:07.916Z,936.54
2017-06-13T01:08:36.346Z,936.56
2017-06-13T01:09:04.964Z,936.56
2017-06-13T01:09:33.585Z,936.56
2017-06-13T01:10:02.201Z,936.56
2017-06-13T01:10:30.791Z,936.54
2017-06-13T01:10:59.392Z,936.53
2017-06-13T01:11:27.993Z,936.5
2017-06-13T01:11:56.535Z,936.48
2017-06-13T01:12:25.133Z,936.51
2017-06-13T01:12:53.640Z,936.48
2017-06-13T01:13:22.162Z,936.49
2017-06-13T01:13:50.778Z,936.47
2017-06-13T01:14:19.315Z,936.51
2017-06-13T01:14:47.751Z,936.51
2017-06-13T01:15:16.583Z,936.52
2017-06-13T01:15:45.196Z,936.53
2017-06-13T01:16:13.808Z,936.53
2017-06-13T01:16:42.354Z,936.55
2017-06-13T01:17:10.962Z,936.53
2017-06-13T01:17:39.581Z,936.52
2017-06-13T01:18:08.094Z,936.53
2017-06-13T01:18:36.587Z,936.51
2017-06-13T01:19:05.205Z,936.54
2017-06-13T01:19:33.826Z,936.55
2017-06-13T01:20:02.446Z,936.57
2017-06-13T01:20:30.951Z,936.56
2017-06-13T01:20:59.567Z,936.55
2017-06-13T01:21:28.176Z,936.61
2017-06-13T01:21:56.815Z,936.59
2017-06-13T01:22:25.453Z,936.57
2017-06-13T01:22:53.958Z,936.61
2017-06-13T01:23:22.616Z,936.61
2017-06-13T01:23:51.128Z,936.6
2017-06-13T01:24:19.729Z,936.6
2017-06-13T01:24:48.348Z,936.61
2017-06-13T01:25:16.951Z,936.61
2017-06-13T01:25:45.531Z,936.59
2017-06-13T01:26:14.167Z,936.6
2017-06-13T01:26:42.786Z,936.63
2017-06-13T01:27:11.410Z,936.66
2017-06-13T01:27:40.356Z,936.64
2017-06-13T01:28:10.396Z,936.65
2017-06-13T01:28:39.024Z,936.65
2017-06-13T01:29:07.647Z,936.69
2017-06-13T01:29:36.285Z,936.66
2017-06-13T01:30:04.889Z,936.67
2017-06-13T01:30:33.540Z,936.65
2017-06-13T01:31:02.134Z,936.66
2017-06-13T01:31:30.649Z,936.69
2017-06-13T01:31:59.272Z,936.64
2017-06-13T01:32:27.890Z,936.67
2017-06-13T01:32:56.498Z,936.67
2017-06-13T01:33:25.121Z,936.68
2017-06-13T01:33:53.706Z,936.64
2017-06-13T01:34:22.336Z,936.69
2017-06-13T01:34:50.949Z,936.68
2017-06-13T01:35:19.480Z,936.69
2017-06-13T01:35:48.087Z,936.69
2017-06-13T01:36:16.632Z,936.71
2017-06-13T01:36:45.219Z,936.66
2017-06-13T01:37:13.810Z,936.7
2017-06-13T01:37:42.398Z,936.7
2017-06-13T01:38:11.017Z,936.72
2017-06-13T01:38:39.548Z,936.71
2017-06-13T01:39:08.155Z,936.71
2017-06-13T01:39:36.692Z,936.69
2017-06-13T01:40:05.307Z,936.71
2017-06-13T01:40:33.831Z,936.7
2017-06-13T01:41:02.465Z,936.71
2017-06-13T01:41:31.076Z,936.7
2017-06-13T01:41:59.706Z,936.65
2017-06-13T01:42:28.208Z,936.68
2017-06-13T01:42:56.799Z,936.64
2017-06-13T01:43:25.396Z,936.68
2017-06-13T01:43:54.016Z,936.65
2017-06-13T01:44:22.653Z,936.64
2017-06-13T01:44:51.253Z,936.66
2017-06-13T01:45:19.852Z,936.66
2017-06-13T01:45:48.674Z,936.64
2017-06-13T01:46:17.280Z,936.6
2017-06-13T01:46:45.897Z,936.59
2017-06-13T01:47:14.489Z,936.61
2017-06-13T01:47:43.087Z,936.64
2017-06-13T01:48:11.713Z,936.61
2017-06-13T01:48:40.315Z,936.6
2017-06-13T01:49:08.922Z,936.57
2017-06-13T01:49:37.524Z,936.58
2017-06-13T01:50:06.144Z,936.57
2017-06-13T01:50:34.773Z,936.58
2017-06-13T01:51:03.394Z,936.56
2017-06-13T01:51:31.924Z,936.56
2017-06-13T01:52:00.443Z,936.54
2017-06-13T01:52:28.937Z,936.54
2017-06-13T01:52:57.554Z,936.53
2017-06-13T01:53:26.062Z,936.54
2017-06-13T01:53:54.668Z,936.56
2017-06-13T01:54:23.085Z,936.55
2017-06-13T01:54:51.714Z,936.57
2017-06-13T01:55:20.215Z,936.56
2017-06-13T01:55:48.852Z,936.58
2017-06-13T01:56:17.473Z,936.54
2017-06-13T01:56:46.087Z,936.57
2017-06-13T01:57:14.549Z,936.61
2017-06-13T01:57:43.161Z,936.56
2017-06-13T01:58:11.778Z,936.6
2017-06-13T01:58:40.397Z,936.56
2017-06-13T01:59:08.932Z,936.58
2017-06-13T01:59:37.450Z,936.58
2017-06-13T02:00:06.055Z,936.56
2017-06-13T02:00:34.562Z,936.53
2017-06-13T02:01:03.167Z,936.55
2017-06-13T02:01:31.764Z,936.54
2017-06-13T02:02:00.390Z,936.56
2017-06-13T02:02:28.910Z,936.52
2017-06-13T02:02:57.498Z,936.51
2017-06-13T02:03:26.077Z,936.48
2017-06-13T02:03:54.707Z,936.49
2017-06-13T02:04:23.140Z,936.51
2017-06-13T02:04:51.743Z,936.48
2017-06-13T02:05:20.175Z,936.46
2017-06-13T02:05:48.758Z,936.44
2017-06-13T02:06:17.365Z,936.48
2017-06-13T02:06:45.963Z,936.43
2017-06-13T02:07:14.583Z,936.48
2017-06-13T02:07:43.093Z,936.43
2017-06-13T02:08:11.706Z,936.48
2017-06-13T02:08:40.300Z,936.48
2017-06-13T02:09:08.917Z,936.49
2017-06-13T02:09:37.427Z,936.51
2017-06-13T02:10:06.022Z,936.53
2017-06-13T02:10:34.635Z,936.51
2017-06-13T02:11:03.159Z,936.54
2017-06-13T02:11:31.773Z,936.55
2017-06-13T02:12:00.360Z,936.55
2017-06-13T02:12:28.879Z,936.54
2017-06-13T02:12:57.490Z,936.53
2017-06-13T02:13:26.192Z,936.54
2017-06-13T02:13:54.800Z,936.54
2017-06-13T02:14:23.321Z,936.55
2017-06-13T02:14:51.808Z,936.56
2017-06-13T02:15:20.405Z,936.56
2017-06-13T02:15:49.026Z,936.55
2017-06-13T02:16:17.553Z,936.54
2017-06-13T02:16:46.190Z,936.57
2017-06-13T02:17:14.795Z,936.57
2017-06-13T02:17:43.328Z,936.59
2017-06-13T02:18:11.833Z,936.58
2017-06-13T02:18:40.367Z,936.55
2017-06-13T02:19:08.965Z,936.59
2017-06-13T02:19:37.583Z,936.54
2017-06-13T02:20:06.286Z,936.55
2017-06-13T02:20:34.795Z,936.56
2017-06-13T02:21:03.407Z,936.55
2017-06-13T02:21:31.939Z,936.56
2017-06-13T02:22:00.554Z,936.53
2017-06-13T02:22:29.088Z,936.5
2017-06-13T02:22:57.714Z,936.51
2017-06-13T02:23:26.325Z,936.5
2017-06-13T02:23:54.929Z,936.53
2017-06-13T02:24:23.539Z,936.52
2017-06-13T02:24:51.950Z,936.53
2017-06-13T02:25:20.578Z,936.53
2017-06-13T02:25:49.186Z,936.55
2017-06-13T02:26:17.527Z,936.57
2017-06-13T02:26:46.195Z,936.53
2017-06-13T02:27:14.761Z,936.54
2017-06-13T02:27:43.271Z,936.55
2017-06-13T02:28:11.867Z,936.56
2017-06-13T02:28:40.400Z,936.58
2017-06-13T02:29:08.895Z,936.56
2017-06-13T02:29:37.511Z,936.56
2017-06-13T02:30:06.136Z,936.55
2017-06-13T02:30:34.751Z,936.51
2017-06-13T02:31:03.357Z,936.52
2017-06-13T02:31:31.997Z,936.49
2017-06-13T02:32:00.513Z,936.52
2017-06-13T02:32:29.049Z,936.47
2017-06-13T02:32:57.649Z,936.46
2017-06-13T02:33:26.192Z,936.5
2017-06-13T02:33:54.722Z,936.48
2017-06-13T02:34:23.334Z,936.44
2017-06-13T02:34:51.935Z,936.49
2017-06-13T02:35:20.532Z,936.47
2017-06-13T02:35:49.119Z,936.44
2017-06-13T02:36:17.721Z,936.5
2017-06-13T02:36:46.250Z,936.44
2017-06-13T02:37:14.875Z,936.48
2017-06-13T02:37:43.500Z,936.46
2017-06-13T02:38:12.202Z,936.52
2017-06-13T02:38:40.747Z,936.48
2017-06-13T02:39:09.353Z,936.53
2017-06-13T02:39:37.965Z,936.5
2017-06-13T02:40:06.574Z,936.49
2017-06-13T02:40:35.086Z,936.48
2017-06-13T02:41:03.692Z,936.49
2017-06-13T02:41:32.304Z,936.5
2017-06-13T02:42:00.919Z,936.52
2017-06-13T02:42:29.519Z,936.51
2017-06-13T02:42:58.011Z,936.49
2017-06-13T02:43:26.621Z,936.49
2017-06-13T02:43:55.223Z,936.47
2017-06-13T02:44:23.831Z,936.48
2017-06-13T02:44:52.410Z,936.47
2017-06-13T02:45:20.994Z,936.48
2017-06-13T02:45:49.501Z,936.49
2017-06-13T02:46:18.123Z,936.48
2017-06-13T02:46:46.740Z,936.51
2017-06-13T02:47:15.333Z,936.48
2017-06-13T02:47:43.965Z,936.45
2017-06-13T02:48:12.567Z,936.51
2017-06-13T02:48:41.181Z,936.47
2017-06-13T02:49:09.802Z,936.44
2017-06-13T02:49:38.388Z,936.45
2017-06-13T02:50:06.985Z,936.45
2017-06-13T02:50:35.542Z,936.44
2017-06-13T02:51:04.239Z,936.4
2017-06-13T02:51:32.869Z,936.44
2017-06-13T02:52:01.380Z,936.44
2017-06-13T02:52:29.896Z,936.42
2017-06-13T02:52:58.508Z,936.4
2017-06-13T02:53:27.124Z,936.42
2017-06-13T02:53:55.753Z,936.39
2017-06-13T02:54:24.167Z,936.38
2017-06-13T02:54:52.697Z,936.41
2017-06-13T02:55:21.301Z,936.41
2017-06-13T02:55:49.904Z,936.41
2017-06-13T02:56:18.501Z,936.4
2017-06-13T02:56:46.932Z,936.41
2017-06-13T02:57:15.558Z,936.45
2017-06-13T02:57:44.189Z,936.45
2017-06-13T02:58:12.703Z,936.44
2017-06-13T02:58:41.307Z,936.44
2017-06-13T02:59:09.914Z,936.44
2017-06-13T02:59:38.483Z,936.41
2017-06-13T03:00:07.082Z,936.44
2017-06-13T03:00:35.703Z,936.46
2017-06-13T03:01:04.338Z,936.42
2017-06-13T03:01:32.974Z,936.47
2017-06-13T03:02:01.562Z,936.47
2017-06-13T03:02:30.094Z,936.48
2017-06-13T03:02:58.707Z,936.52
2017-06-13T03:03:27.313Z,936.5
2017-06-13T03:03:55.844Z,936.53
2017-06-13T03:04:24.443Z,936.54
2017-06-13T03:04:53.061Z,936.55
2017-06-13T03:05:21.657Z,936.56
2017-06-13T03:05:50.287Z,936.55
2017-06-13T03:06:18.894Z,936.58
2017-06-13T03:06:47.507Z,936.6
2017-06-13T03:07:16.126Z,936.62
2017-06-13T03:07:44.750Z,936.61
2017-06-13T03:08:13.353Z,936.62
2017-06-13T03:08:41.988Z,936.6
2017-06-13T03:09:10.614Z,936.64
2017-06-13T03:09:39.241Z,936.63
2017-06-13T03:10:07.837Z,936.61
2017-06-13T03:10:36.465Z,936.6
2017-06-13T03:11:05.067Z,936.61
2017-06-13T03:11:33.561Z,936.63
2017-06-13T03:12:02.200Z,936.61
2017-06-13T03:12:30.814Z,936.64
2017-06-13T03:12:59.292Z,936.66
2017-06-13T03:13:27.913Z,936.64
2017-06-13T03:13:56.452Z,936.68
2017-06-13T03:14:24.985Z,936.64
2017-06-13T03:14:53.595Z,936.7
2017-06-13T03:15:22.233Z,936.68
2017-06-13T03:15:50.831Z,936.7
2017-06-13T03:16:19.317Z,936.65
2017-06-13T03:16:47.923Z,936.67
2017-06-13T03:17:16.536Z,936.7
2017-06-13T03:17:45.152Z,936.68
2017-06-13T03:18:13.679Z,936.69
2017-06-13T03:18:42.273Z,936.64
2017-06-13T03:19:10.841Z,936.67
2017-06-13T03:19:39.704Z,936.66
2017-06-13T03:20:08.103Z,936.62
2017-06-13T03:20:36.725Z,936.62
2017-06-13T03:21:05.335Z,936.6
2017-06-13T03:21:33.954Z,936.6
2017-06-13T03:22:02.393Z,936.62
2017-06-13T03:22:30.986Z,936.61
2017-06-13T03:22:59.605Z,936.53
2017-06-13T03:23:28.111Z,936.54
2017-06-13T03:23:56.734Z,936.58
2017-06-13T03:24:25.376Z,936.54
2017-06-13T03:24:53.969Z,936.54
2017-06-13T03:25:22.569Z,936.56
2017-06-13T03:25:51.160Z,936.52
2017-06-13T03:26:19.671Z,936.54
2017-06-13T03:26:48.290Z,936.5
2017-06-13T03:27:16.900Z,936.54
2017-06-13T03:27:45.526Z,936.5
2017-06-13T03:28:14.113Z,936.52
2017-06-13T03:28:42.717Z,936.52
2017-06-13T03:29:11.322Z,936.54
2017-06-13T03:29:39.822Z,936.51
2017-06-13T03:30:08.331Z,936.52
2017-06-13T03:30:36.862Z,936.58
2017-06-13T03:31:05.443Z,936.56
2017-06-13T03:31:34.035Z,936.54
2017-06-13T03:32:02.627Z,936.55
2017-06-13T03:32:31.239Z,936.58
2017-06-13T03:32:59.836Z,936.54
2017-06-13T03:33:28.371Z,936.55
2017-06-13T03:33:56.990Z,936.54
2017-06-13T03:34:25.616Z,936.59
2017-06-13T03:34:54.215Z,936.6
2017-06-13T03:35:22.805Z,936.62
2017-06-13T03:35:51.450Z,936.58
2017-06-13T03:36:20.054Z,936.57
2017-06-13T03:36:48.586Z,936.62
2017-06-13T03:37:17.110Z,936.59
2017-06-13T03:37:45.695Z,936.62
2017-06-13T03:38:14.313Z,936.64
2017-06-13T03:38:42.928Z,936.64
2017-06-13T03:39:11.521Z,936.61
2017-06-13T03:39:40.038Z,936.6
2017-06-13T03:40:08.630Z,936.6
2017-06-13T03:40:37.230Z,936.57
2017-06-13T03:41:05.870Z,936.64
2017-06-13T03:41:34.459Z,936.64
2017-06-13T03:42:03.075Z,936.65
2017-06-13T03:42:31.683Z,936.6
2017-06-13T03:43:00.298Z,936.61
2017-06-13T03:43:28.899Z,936.6
2017-06-13T03:43:57.484Z,936.56
2017-06-13T03:44:27.017Z,936.59
2017-06-13T03:44:55.875Z,936.63
2017-06-13T03:45:24.493Z,936.59
2017-06-13T03:45:53.112Z,936.6
2017-06-13T03:46:21.604Z,936.61
2017-06-13T03:46:50.201Z,936.64
2017-06-13T03:47:18.802Z,936.6
2017-06-13T03:47:47.420Z,936.62
2017-06-13T03:48:16.029Z,936.59
2017-06-13T03:48:44.549Z,936.6
2017-06-13T03:49:13.191Z,936.64
2017-06-13T03:49:41.834Z,936.6
2017-06-13T03:50:10.350Z,936.62
2017-06-13T03:50:38.938Z,936.64
2017-06-13T03:51:07.556Z,936.64
2017-06-13T03:51:36.085Z,936.63
2017-06-13T03:52:04.599Z,936.62
2017-06-13T03:52:33.135Z,936.65
2017-06-13T03:53:01.718Z,936.64
2017-06-13T03:53:30.309Z,936.66
2017-06-13T03:53:58.913Z,936.68
2017-06-13T03:54:27.550Z,936.68
2017-06-13T03:54:56.145Z,936.66
2017-06-13T03:55:24.749Z,936.66
2017-06-13T03:55:53.358Z,936.64
2017-06-13T03:56:21.959Z,936.61
2017-06-13T03:56:50.555Z,936.64
2017-06-13T03:57:19.094Z,936.64
2017-06-13T03:57:47.604Z,936.64
2017-06-13T03:58:16.213Z,936.62
2017-06-13T03:58:44.819Z,936.65
2017-06-13T03:59:13.435Z,936.66
2017-06-13T03:59:41.976Z,936.66
2017-06-13T04:00:10.605Z,936.67
2017-06-13T04:00:40.497Z,936.7
2017-06-13T04:01:09.083Z,936.66
2017-06-13T04:01:37.588Z,936.66
2017-06-13T04:02:06.244Z,936.61
2017-06-13T04:02:34.792Z,936.66
2017-06-13T04:03:03.411Z,936.63
2017-06-13T04:03:32.009Z,936.61
2017-06-13T04:04:00.619Z,936.58
2017-06-13T04:04:29.230Z,936.61
2017-06-13T04:04:57.828Z,936.59
2017-06-13T04:05:26.350Z,936.62
2017-06-13T04:05:54.973Z,936.61
2017-06-13T04:06:23.608Z,936.61
2017-06-13T04:06:52.231Z,936.61
2017-06-13T04:07:20.748Z,936.59
2017-06-13T04:07:49.259Z,936.6
2017-06-13T04:08:17.778Z,936.59
2017-06-13T04:08:46.432Z,936.61
2017-06-13T04:09:15.073Z,936.6
2017-06-13T04:09:43.586Z,936.58
2017-06-13T04:10:12.206Z,936.57
2017-06-13T04:10:40.607Z,936.58
2017-06-13T04:11:09.116Z,936.59
2017-06-13T04:11:37.630Z,936.56
2017-06-13T04:12:06.223Z,936.57
2017-06-13T04:12:34.825Z,936.55
2017-06-13T04:13:03.408Z,936.54
2017-06-13T04:13:32.013Z,936.51
2017-06-13T04:14:00.519Z,936.5
2017-06-13T04:14:29.146Z,936.53
2017-06-13T04:14:57.744Z,936.51
2017-06-13T04:15:26.135Z,936.51
2017-06-13T04:15:54.726Z,936.53
2017-06-13T04:16:23.247Z,936.5
2017-06-13T04:16:51.844Z,936.52
2017-06-13T04:17:20.426Z,936.48
2017-06-13T04:17:49.161Z,936.53
2017-06-13T04:18:18.498Z,936.51
2017-06-13T04:18:48.170Z,936.5
2017-06-13T04:19:16.707Z,936.54
2017-06-13T04:19:45.314Z,936.51
2017-06-13T04:20:13.813Z,936.49
2017-06-13T04:20:42.340Z,936.53
2017-06-13T04:21:10.947Z,936.55
2017-06-13T04:21:39.559Z,936.53
2017-06-13T04:22:08.162Z,936.52
2017-06-13T04:22:36.682Z,936.54
2017-06-13T04:23:05.295Z,936.55
2017-06-13T04:23:33.904Z,936.53
2017-06-13T04:24:02.417Z,936.49
2017-06-13T04:24:31.020Z,936.5
2017-06-13T04:24:59.655Z,936.51
2017-06-13T04:25:28.237Z,936.53
2017-06-13T04:25:56.730Z,936.49
2017-06-13T04:26:25.367Z,936.5
2017-06-13T04:26:53.962Z,936.52
2017-06-13T04:27:22.583Z,936.49
2017-06-13T04:27:51.206Z,936.46
2017-06-13T04:28:19.803Z,936.47
2017-06-13T04:28:48.346Z,936.48
2017-06-13T04:29:16.965Z,936.46
2017-06-13T04:29:45.603Z,936.44
2017-06-13T04:30:14.116Z,936.48
2017-06-13T04:30:42.731Z,936.48
2017-06-13T04:31:11.143Z,936.46
2017-06-13T04:31:39.752Z,936.47
2017-06-13T04:32:08.379Z,936.43
2017-06-13T04:32:36.874Z,936.45
2017-06-13T04:33:05.487Z,936.47
2017-06-13T04:33:34.085Z,936.48
2017-06-13T04:34:02.621Z,936.45
2017-06-13T04:34:31.223Z,936.44
2017-06-13T04:34:59.840Z,936.46
2017-06-13T04:35:28.454Z,936.46
2017-06-13T04:35:57.066Z,936.46
2017-06-13T04:36:25.654Z,936.46
2017-06-13T04:36:54.177Z,936.5
2017-06-13T04:37:22.622Z,936.45
2017-06-13T04:37:51.220Z,936.45
2017-06-13T04:38:19.840Z,936.46
2017-06-13T04:38:48.456Z,936.44
2017-06-13T04:39:17.086Z,936.47
2017-06-13T04:39:45.681Z,936.46
2017-06-13T04:40:14.082Z,936.47
2017-06-13T04:40:42.595Z,936.47
2017-06-13T04:41:11.219Z,936.46
2017-06-13T04:41:39.734Z,936.45
2017-06-13T04:42:08.357Z,936.43
2017-06-13T04:42:36.859Z,936.44
2017-06-13T04:43:05.380Z,936.47
2017-06-13T04:43:33.982Z,936.46
2017-06-13T04:44:02.563Z,936.48
2017-06-13T04:44:31.166Z,936.51
2017-06-13T04:44:59.583Z,936.42
2017-06-13T04:45:28.240Z,936.48
2017-06-13T04:45:58.420Z,936.45
2017-06-13T04:46:26.808Z,936.47
2017-06-13T04:46:55.269Z,936.46
2017-06-13T04:47:23.880Z,936.44
2017-06-13T04:47:52.482Z,936.45
2017-06-13T04:48:21.130Z,936.47
2017-06-13T04:48:49.759Z,936.46
2017-06-13T04:49:18.513Z,936.44
2017-06-13T04:49:47.139Z,936.47
2017-06-13T04:50:15.743Z,936.46
2017-06-13T04:50:44.367Z,936.45
2017-06-13T04:51:12.867Z,936.44
2017-06-13T04:51:41.492Z,936.48
2017-06-13T04:52:10.084Z,936.43
2017-06-13T04:52:38.671Z,936.47
2017-06-13T04:53:07.212Z,936.41
2017-06-13T04:53:35.809Z,936.46
2017-06-13T04:54:04.426Z,936.45
2017-06-13T04:54:33.028Z,936.43
2017-06-13T04:55:01.616Z,936.42
2017-06-13T04:55:30.251Z,936.42
2017-06-13T04:55:58.869Z,936.41
2017-06-13T04:56:27.467Z,936.39
2017-06-13T04:56:55.966Z,936.4
2017-06-13T04:57:24.583Z,936.34
2017-06-13T04:57:53.210Z,936.34
2017-06-13T04:58:21.837Z,936.35
2017-06-13T04:58:50.350Z,936.33
2017-06-13T04:59:18.885Z,936.34
2017-06-13T04:59:47.501Z,936.35
2017-06-13T05:00:16.108Z,936.31
2017-06-13T05:00:44.686Z,936.34
2017-06-13T05:01:13.313Z,936.33
2017-06-13T05:01:41.939Z,936.33
2017-06-13T05:02:10.561Z,936.35
2017-06-13T05:02:39.087Z,936.31
2017-06-13T05:03:07.499Z,936.34
2017-06-13T05:03:35.999Z,936.31
2017-06-13T05:04:04.482Z,936.35
2017-06-13T05:04:33.085Z,936.3
2017-06-13T05:05:01.604Z,936.33
2017-06-13T05:05:30.221Z,936.38
2017-06-13T05:05:58.828Z,936.36
2017-06-13T05:06:27.353Z,936.38
2017-06-13T05:06:55.860Z,936.4
2017-06-13T05:07:24.455Z,936.41
2017-06-13T05:07:53.082Z,936.46
2017-06-13T05:08:21.707Z,936.4
2017-06-13T05:08:50.319Z,936.42
2017-06-13T05:09:18.852Z,936.42
2017-06-13T05:09:47.324Z,936.45
2017-06-13T05:10:15.932Z,936.43
2017-06-13T05:10:44.519Z,936.42
2017-06-13T05:11:13.018Z,936.44
2017-06-13T05:11:41.651Z,936.44
2017-06-13T05:12:10.268Z,936.42
2017-06-13T05:12:38.872Z,936.38
2017-06-13T05:13:07.396Z,936.4
2017-06-13T05:13:36.026Z,936.37
2017-06-13T05:14:04.645Z,936.37
2017-06-13T05:14:33.229Z,936.36
2017-06-13T05:15:01.842Z,936.37
2017-06-13T05:15:30.462Z,936.37
2017-06-13T05:15:59.087Z,936.34
2017-06-13T05:16:27.635Z,936.35
2017-06-13T05:16:56.264Z,936.37
2017-06-13T05:17:24.890Z,936.33
2017-06-13T05:17:53.518Z,936.34
2017-06-13T05:18:22.147Z,936.33
2017-06-13T05:18:50.750Z,936.4
2017-06-13T05:19:19.249Z,936.37
2017-06-13T05:19:47.836Z,936.4
2017-06-13T05:20:16.422Z,936.38
2017-06-13T05:20:45.038Z,936.41
2017-06-13T05:21:13.642Z,936.39
2017-06-13T05:21:42.266Z,936.4
2017-06-13T05:22:10.803Z,936.4
2017-06-13T05:22:39.410Z,936.41
2017-06-13T05:23:08.040Z,936.38
2017-06-13T05:23:36.577Z,936.4
2017-06-13T05:24:05.176Z,936.37
2017-06-13T05:24:33.906Z,936.42
2017-06-13T05:25:02.500Z,936.43
2017-06-13T05:25:30.910Z,936.44
2017-06-13T05:25:59.515Z,936.42
2017-06-13T05:26:28.024Z,936.46
2017-06-13T05:26:56.648Z,936.41
2017-06-13T05:27:25.256Z,936.41
2017-06-13T05:27:53.866Z,936.44
2017-06-13T05:28:22.295Z,936.45
2017-06-13T05:28:50.894Z,936.44
2017-06-13T05:29:19.406Z,936.4
2017-06-13T05:29:48.019Z,936.41
2017-06-13T05:30:16.607Z,936.4
2017-06-13T05:30:45.206Z,936.37
2017-06-13T05:31:13.814Z,936.41
2017-06-13T05:31:42.352Z,936.4
2017-06-13T05:32:10.969Z,936.39
2017-06-13T05:32:39.550Z,936.37
2017-06-13T05:33:08.146Z,936.38
2017-06-13T05:33:36.556Z,936.36
2017-06-13T05:34:05.053Z,936.36
2017-06-13T05:34:33.466Z,936.3
2017-06-13T05:35:02.050Z,936.3
2017-06-13T05:35:30.660Z,936.29
2017-06-13T05:35:59.238Z,936.29
2017-06-13T05:36:27.843Z,936.27
2017-06-13T05:36:56.441Z,936.3
2017-06-13T05:37:24.966Z,936.29
2017-06-13T05:37:53.484Z,936.31
2017-06-13T05:38:21.969Z,936.28
2017-06-13T05:38:50.590Z,936.34
2017-06-13T05:39:19.111Z,936.32
2017-06-13T05:39:47.736Z,936.26
2017-06-13T05:40:16.359Z,936.23
2017-06-13T05:40:44.953Z,936.24
2017-06-13T05:41:13.468Z,936.27
2017-06-13T05:41:41.979Z,936.28
2017-06-13T05:42:10.596Z,936.27
2017-06-13T05:42:39.104Z,936.24
2017-06-13T05:43:07.705Z,936.21
2017-06-13T05:43:36.325Z,936.23
2017-06-13T05:44:04.835Z,936.26
2017-06-13T05:44:33.435Z,936.26
2017-06-13T05:45:02.036Z,936.26
2017-06-13T05:45:30.458Z,936.25
2017-06-13T05:45:59.073Z,936.23
2017-06-13T05:46:27.677Z,936.2
2017-06-13T05:46:56.284Z,936.18
2017-06-13T05:47:24.894Z,936.21
2017-06-13T05:47:53.500Z,936.19
2017-06-13T05:48:22.127Z,936.18
2017-06-13T05:48:50.745Z,936.17
2017-06-13T05:49:19.270Z,936.17
2017-06-13T05:49:47.874Z,936.19
2017-06-13T05:50:16.389Z,936.18
2017-06-13T05:50:44.965Z,936.19
2017-06-13T05:51:13.581Z,936.16
2017-06-13T05:51:42.190Z,936.23
2017-06-13T05:52:10.805Z,936.23
2017-06-13T05:52:39.334Z,936.27
2017-06-13T05:53:07.947Z,936.25
2017-06-13T05:53:36.569Z,936.23
2017-06-13T05:54:05.314Z,936.21
2017-06-13T05:54:33.911Z,936.21
2017-06-13T05:55:02.545Z,936.23
2017-06-13T05:55:31.059Z,936.26
2017-06-13T05:55:59.471Z,936.25
2017-06-13T05:56:28.086Z,936.25
2017-06-13T05:56:56.606Z,936.24
2017-06-13T05:57:25.119Z,936.25
2017-06-13T05:57:53.732Z,936.24
2017-06-13T05:58:22.329Z,936.23
2017-06-13T05:58:50.748Z,936.24